Shun Cheng — BBUL — position and weather

sailwx.info

Track history (hours):
 
Tides and Currents Weather Stations Pressure Air Temp Water Temp Dewpoint Dewpoint Depression Visibility Wind Speed Wind Dir Waves Ship Positions

Shun Cheng

Last reported at 2014-Jul-31 06:05 UTC. Time now 2014-Jul-31 07:26 UTC.
Position N 31°25' E 121°32'.

Length 128 m; draft 5 m.

Type: Cargo ship. MMSI: 412949000.

Date/timePositionNaut miles runAvg speedWind from/ knotsBaromVisibWave heightAir tempDewpointWater temp
2014-Jul-31 06:05N 31°25' E 121°32'327 9.7
2014-Jul-29 20:22N 36°48' E 122°30'3 1.9
2014-Jul-29 18:31N 36°51' E 122°28'0 0.0
2014-Jul-29 14:31N 36°51' E 122°28'0 0.1
2014-Jul-29 13:31N 36°51' E 122°28'0 0.0
2014-Jul-29 12:25N 36°51' E 122°28'0 0.5
2014-Jul-29 11:33N 36°52' E 122°28'1 1.0
2014-Jul-29 10:31N 36°51' E 122°29'3 2.5
2014-Jul-29 09:27N 36°53' E 122°26'0 0.0
2014-Jul-29 06:30N 36°53' E 122°26'0 0.0
2014-Jul-29 05:24N 36°53' E 122°26'0 0.0
2014-Jul-29 04:30N 36°53' E 122°26'0 0.0
2014-Jul-29 03:24N 36°53' E 122°26'0 0.0
2014-Jul-29 02:30N 36°53' E 122°26'0 0.0
2014-Jul-29 01:24N 36°53' E 122°26'0 0.0
2014-Jul-29 00:24N 36°53' E 122°26'0 0.0
2014-Jul-28 23:30N 36°53' E 122°26'0 0.0
2014-Jul-28 22:30N 36°53' E 122°26'0 0.0
2014-Jul-28 21:30N 36°53' E 122°26'0 0.0
2014-Jul-28 20:30N 36°53' E 122°26'0 0.0
2014-Jul-28 19:24N 36°53' E 122°26'0 0.0
2014-Jul-28 18:30N 36°53' E 122°26'0 0.0
2014-Jul-28 17:24N 36°53' E 122°26'0 0.0
2014-Jul-28 16:24N 36°53' E 122°26'0 0.0
2014-Jul-28 15:24N 36°53' E 122°26'0 0.0
2014-Jul-28 14:30N 36°53' E 122°26'0 0.0
2014-Jul-28 13:30N 36°53' E 122°26'0 0.0
2014-Jul-28 12:30N 36°53' E 122°26'0 0.0
2014-Jul-28 11:24N 36°53' E 122°26'0 0.0
2014-Jul-28 10:30N 36°53' E 122°26'0 0.0
2014-Jul-28 09:30N 36°53' E 122°26'0 0.0
2014-Jul-28 08:30N 36°53' E 122°26'0 0.0
2014-Jul-28 07:30N 36°53' E 122°26'0 0.0
2014-Jul-28 06:30N 36°53' E 122°26'0 0.0
2014-Jul-28 05:30N 36°53' E 122°26'0 0.0
2014-Jul-28 04:30N 36°53' E 122°26'0 0.0
2014-Jul-28 03:18N 36°53' E 122°26'0 0.0
2014-Jul-28 02:12N 36°53' E 122°26'0 0.0
2014-Jul-28 01:24N 36°53' E 122°26'0 0.0
2014-Jul-28 00:12N 36°53' E 122°26'0 0.0
2014-Jul-27 23:24N 36°53' E 122°26'0 0.0
2014-Jul-27 20:20N 36°53' E 122°26'0 0.0
2014-Jul-27 19:32N 36°53' E 122°26'0 0.0
2014-Jul-27 18:32N 36°53' E 122°26'0 0.0
2014-Jul-27 17:14N 36°53' E 122°26'0 0.0
2014-Jul-27 16:20N 36°53' E 122°26'0 0.0
2014-Jul-27 15:32N 36°53' E 122°26'0 0.0
2014-Jul-27 14:32N 36°53' E 122°26'0 0.0
2014-Jul-27 13:32N 36°53' E 122°26'0 0.0
2014-Jul-27 12:32N 36°53' E 122°26'0 0.0
2014-Jul-27 11:32N 36°53' E 122°26'0 0.0
2014-Jul-27 10:32N 36°53' E 122°26'0 0.0
2014-Jul-27 09:32N 36°53' E 122°26'0 0.0
2014-Jul-27 08:08N 36°53' E 122°26'0 0.0
2014-Jul-27 07:32N 36°53' E 122°26'0 0.0
2014-Jul-27 06:20N 36°53' E 122°26'0 0.0
2014-Jul-27 05:32N 36°53' E 122°26'0 0.0
2014-Jul-27 04:26N 36°53' E 122°26'0 0.0
2014-Jul-27 03:26N 36°53' E 122°26'0 0.0
2014-Jul-27 02:26N 36°53' E 122°26'0 0.0
2014-Jul-27 01:32N 36°53' E 122°26'0 0.0
2014-Jul-27 00:32N 36°53' E 122°26'0 0.1
2014-Jul-26 21:32N 36°53' E 122°26'0 0.0
2014-Jul-26 16:08N 36°53' E 122°26'0 0.0
2014-Jul-26 15:20N 36°53' E 122°26'0 0.0
2014-Jul-26 14:26N 36°53' E 122°26'0 0.0
2014-Jul-26 13:20N 36°53' E 122°26'0 0.0
2014-Jul-26 12:14N 36°53' E 122°26'0 0.0
2014-Jul-26 11:17N 36°53' E 122°26'0 0.0
2014-Jul-26 10:22N 36°53' E 122°26'0 0.0
2014-Jul-25 04:22N 36°53' E 122°26'0 0.0
2014-Jul-25 03:10N 36°53' E 122°26'0 0.0
2014-Jul-24 09:21N 36°53' E 122°26'0 0.0
2014-Jul-24 08:15N 36°53' E 122°26'0 0.0
2014-Jul-24 05:03N 36°53' E 122°26'0 0.0
2014-Jul-24 04:33N 36°53' E 122°26'0 0.0
2014-Jul-24 02:32N 36°53' E 122°26'0 0.0
2014-Jul-24 01:31N 36°53' E 122°26'0 0.0
2014-Jul-24 00:31N 36°53' E 122°26'0 0.0
2014-Jul-23 23:31N 36°53' E 122°26'0 0.0
2014-Jul-23 22:25N 36°53' E 122°26'0 0.0
2014-Jul-23 21:13N 36°53' E 122°26'0 0.0
2014-Jul-23 19:13N 36°53' E 122°26'0 0.0
2014-Jul-23 18:19N 36°53' E 122°26'0 0.0
2014-Jul-23 17:31N 36°53' E 122°26'0 0.0
2014-Jul-23 16:31N 36°53' E 122°26'0 0.0
2014-Jul-23 15:31N 36°53' E 122°26'0 0.0
2014-Jul-23 14:31N 36°53' E 122°26'0 0.0
2014-Jul-23 13:25N 36°53' E 122°26'0 0.0
2014-Jul-23 12:31N 36°53' E 122°26'0 0.0
2014-Jul-23 11:31N 36°53' E 122°26'0 0.0
2014-Jul-23 10:31N 36°53' E 122°26'0 0.0
2014-Jul-23 09:31N 36°53' E 122°26'0 0.0
2014-Jul-23 08:31N 36°53' E 122°26'0 0.0
2014-Jul-23 07:31N 36°53' E 122°26'0 0.0
2014-Jul-23 06:19N 36°53' E 122°26'0 0.0
2014-Jul-23 05:31N 36°53' E 122°26'0 0.0
2014-Jul-23 04:13N 36°53' E 122°26'0 0.0
2014-Jul-23 03:31N 36°53' E 122°26'0 0.0
2014-Jul-23 02:19N 36°53' E 122°26'0 0.0
2014-Jul-23 00:31N 36°53' E 122°26'0 0.0
2014-Jul-22 23:25N 36°53' E 122°26'0 0.0
2014-Jul-22 21:13N 36°53' E 122°26'0 0.0
2014-Jul-22 20:25N 36°53' E 122°26'0 0.0
2014-Jul-22 19:31N 36°53' E 122°26'0 0.0
2014-Jul-22 18:31N 36°53' E 122°26'0 0.0
2014-Jul-22 17:31N 36°53' E 122°26'0 0.0
2014-Jul-22 16:31N 36°53' E 122°26'0 0.0
2014-Jul-22 15:31N 36°53' E 122°26'0 0.0
2014-Jul-22 14:12N 36°53' E 122°26'0 0.0
2014-Jul-22 13:24N 36°53' E 122°26'0 0.0
2014-Jul-22 12:30N 36°53' E 122°26'0 0.0
2014-Jul-22 10:24N 36°53' E 122°26'0 0.1
2014-Jul-22 09:30N 36°53' E 122°26'0 0.0
2014-Jul-22 08:30N 36°53' E 122°26'0 0.0
2014-Jul-22 07:18N 36°53' E 122°26'0 0.0
2014-Jul-22 06:30N 36°53' E 122°26'0 0.0
2014-Jul-22 00:18N 36°53' E 122°26'0 0.0
2014-Jul-21 23:30N 36°53' E 122°26'0 0.0
2014-Jul-21 22:24N 36°53' E 122°26'0 0.0
2014-Jul-21 21:12N 36°53' E 122°26'0 0.1
2014-Jul-21 20:30N 36°53' E 122°26'0 0.0
2014-Jul-21 20:12N 36°53' E 122°26'0 0.1
2014-Jul-21 19:24N 36°53' E 122°26'0 0.0
2014-Jul-21 06:30N 36°53' E 122°26'  
Track history (hours):
 
Tides and Currents Weather Stations Pressure Air Temp Water Temp Dewpoint Dewpoint Depression Visibility Wind Speed Wind Dir Waves Ship Positions

Shun Cheng

Last reported at 2014-Jul-31 06:05 UTC. Time now 2014-Jul-31 07:26 UTC.
Position N 31°25' E 121°32'.

Length 128 m; draft 5 m.

Type: Cargo ship. MMSI: 412949000.

Date/timePositionNaut miles runAvg speedWind from/ knotsBaromVisibWave heightAir tempDewpointWater temp
2014-Jul-31 06:05N 31°25' E 121°32'327 9.7
2014-Jul-29 20:22N 36°48' E 122°30'3 1.9
2014-Jul-29 18:31N 36°51' E 122°28'0 0.0
2014-Jul-29 14:31N 36°51' E 122°28'0 0.1
2014-Jul-29 13:31N 36°51' E 122°28'0 0.0
2014-Jul-29 12:25N 36°51' E 122°28'0 0.5
2014-Jul-29 11:33N 36°52' E 122°28'1 1.0
2014-Jul-29 10:31N 36°51' E 122°29'3 2.5
2014-Jul-29 09:27N 36°53' E 122°26'0 0.0
2014-Jul-29 06:30N 36°53' E 122°26'0 0.0
2014-Jul-29 05:24N 36°53' E 122°26'0 0.0
2014-Jul-29 04:30N 36°53' E 122°26'0 0.0
2014-Jul-29 03:24N 36°53' E 122°26'0 0.0
2014-Jul-29 02:30N 36°53' E 122°26'0 0.0
2014-Jul-29 01:24N 36°53' E 122°26'0 0.0
2014-Jul-29 00:24N 36°53' E 122°26'0 0.0
2014-Jul-28 23:30N 36°53' E 122°26'0 0.0
2014-Jul-28 22:30N 36°53' E 122°26'0 0.0
2014-Jul-28 21:30N 36°53' E 122°26'0 0.0
2014-Jul-28 20:30N 36°53' E 122°26'0 0.0
2014-Jul-28 19:24N 36°53' E 122°26'0 0.0
2014-Jul-28 18:30N 36°53' E 122°26'0 0.0
2014-Jul-28 17:24N 36°53' E 122°26'0 0.0
2014-Jul-28 16:24N 36°53' E 122°26'0 0.0
2014-Jul-28 15:24N 36°53' E 122°26'0 0.0
2014-Jul-28 14:30N 36°53' E 122°26'0 0.0
2014-Jul-28 13:30N 36°53' E 122°26'0 0.0
2014-Jul-28 12:30N 36°53' E 122°26'0 0.0
2014-Jul-28 11:24N 36°53' E 122°26'0 0.0
2014-Jul-28 10:30N 36°53' E 122°26'0 0.0
2014-Jul-28 09:30N 36°53' E 122°26'0 0.0
2014-Jul-28 08:30N 36°53' E 122°26'0 0.0
2014-Jul-28 07:30N 36°53' E 122°26'0 0.0
2014-Jul-28 06:30N 36°53' E 122°26'0 0.0
2014-Jul-28 05:30N 36°53' E 122°26'0 0.0
2014-Jul-28 04:30N 36°53' E 122°26'0 0.0
2014-Jul-28 03:18N 36°53' E 122°26'0 0.0
2014-Jul-28 02:12N 36°53' E 122°26'0 0.0
2014-Jul-28 01:24N 36°53' E 122°26'0 0.0
2014-Jul-28 00:12N 36°53' E 122°26'0 0.0
2014-Jul-27 23:24N 36°53' E 122°26'0 0.0
2014-Jul-27 20:20N 36°53' E 122°26'0 0.0
2014-Jul-27 19:32N 36°53' E 122°26'0 0.0
2014-Jul-27 18:32N 36°53' E 122°26'0 0.0
2014-Jul-27 17:14N 36°53' E 122°26'0 0.0
2014-Jul-27 16:20N 36°53' E 122°26'0 0.0
2014-Jul-27 15:32N 36°53' E 122°26'0 0.0
2014-Jul-27 14:32N 36°53' E 122°26'0 0.0
2014-Jul-27 13:32N 36°53' E 122°26'0 0.0
2014-Jul-27 12:32N 36°53' E 122°26'0 0.0
2014-Jul-27 11:32N 36°53' E 122°26'0 0.0
2014-Jul-27 10:32N 36°53' E 122°26'0 0.0
2014-Jul-27 09:32N 36°53' E 122°26'0 0.0
2014-Jul-27 08:08N 36°53' E 122°26'0 0.0
2014-Jul-27 07:32N 36°53' E 122°26'0 0.0
2014-Jul-27 06:20N 36°53' E 122°26'0 0.0
2014-Jul-27 05:32N 36°53' E 122°26'0 0.0
2014-Jul-27 04:26N 36°53' E 122°26'0 0.0
2014-Jul-27 03:26N 36°53' E 122°26'0 0.0
2014-Jul-27 02:26N 36°53' E 122°26'0 0.0
2014-Jul-27 01:32N 36°53' E 122°26'0 0.0
2014-Jul-27 00:32N 36°53' E 122°26'0 0.1
2014-Jul-26 21:32N 36°53' E 122°26'0 0.0
2014-Jul-26 16:08N 36°53' E 122°26'0 0.0
2014-Jul-26 15:20N 36°53' E 122°26'0 0.0
2014-Jul-26 14:26N 36°53' E 122°26'0 0.0
2014-Jul-26 13:20N 36°53' E 122°26'0 0.0
2014-Jul-26 12:14N 36°53' E 122°26'0 0.0
2014-Jul-26 11:17N 36°53' E 122°26'0 0.0
2014-Jul-26 10:22N 36°53' E 122°26'0 0.0
2014-Jul-25 04:22N 36°53' E 122°26'0 0.0
2014-Jul-25 03:10N 36°53' E 122°26'0 0.0
2014-Jul-24 09:21N 36°53' E 122°26'0 0.0
2014-Jul-24 08:15N 36°53' E 122°26'0 0.0
2014-Jul-24 05:03N 36°53' E 122°26'0 0.0
2014-Jul-24 04:33N 36°53' E 122°26'0 0.0
2014-Jul-24 02:32N 36°53' E 122°26'0 0.0
2014-Jul-24 01:31N 36°53' E 122°26'0 0.0
2014-Jul-24 00:31N 36°53' E 122°26'0 0.0
2014-Jul-23 23:31N 36°53' E 122°26'0 0.0
2014-Jul-23 22:25N 36°53' E 122°26'0 0.0
2014-Jul-23 21:13N 36°53' E 122°26'0 0.0
2014-Jul-23 19:13N 36°53' E 122°26'0 0.0
2014-Jul-23 18:19N 36°53' E 122°26'0 0.0
2014-Jul-23 17:31N 36°53' E 122°26'0 0.0
2014-Jul-23 16:31N 36°53' E 122°26'0 0.0
2014-Jul-23 15:31N 36°53' E 122°26'0 0.0
2014-Jul-23 14:31N 36°53' E 122°26'0 0.0
2014-Jul-23 13:25N 36°53' E 122°26'0 0.0
2014-Jul-23 12:31N 36°53' E 122°26'0 0.0
2014-Jul-23 11:31N 36°53' E 122°26'0 0.0
2014-Jul-23 10:31N 36°53' E 122°26'0 0.0
2014-Jul-23 09:31N 36°53' E 122°26'0 0.0
2014-Jul-23 08:31N 36°53' E 122°26'0 0.0
2014-Jul-23 07:31N 36°53' E 122°26'0 0.0
2014-Jul-23 06:19N 36°53' E 122°26'0 0.0
2014-Jul-23 05:31N 36°53' E 122°26'0 0.0
2014-Jul-23 04:13N 36°53' E 122°26'0 0.0
2014-Jul-23 03:31N 36°53' E 122°26'0 0.0
2014-Jul-23 02:19N 36°53' E 122°26'0 0.0
2014-Jul-23 00:31N 36°53' E 122°26'0 0.0
2014-Jul-22 23:25N 36°53' E 122°26'0 0.0
2014-Jul-22 21:13N 36°53' E 122°26'0 0.0
2014-Jul-22 20:25N 36°53' E 122°26'0 0.0
2014-Jul-22 19:31N 36°53' E 122°26'0 0.0
2014-Jul-22 18:31N 36°53' E 122°26'0 0.0
2014-Jul-22 17:31N 36°53' E 122°26'0 0.0
2014-Jul-22 16:31N 36°53' E 122°26'0 0.0
2014-Jul-22 15:31N 36°53' E 122°26'0 0.0
2014-Jul-22 14:12N 36°53' E 122°26'0 0.0
2014-Jul-22 13:24N 36°53' E 122°26'0 0.0
2014-Jul-22 12:30N 36°53' E 122°26'0 0.0
2014-Jul-22 10:24N 36°53' E 122°26'0 0.1
2014-Jul-22 09:30N 36°53' E 122°26'0 0.0
2014-Jul-22 08:30N 36°53' E 122°26'0 0.0
2014-Jul-22 07:18N 36°53' E 122°26'0 0.0
2014-Jul-22 06:30N 36°53' E 122°26'0 0.0
2014-Jul-22 00:18N 36°53' E 122°26'0 0.0
2014-Jul-21 23:30N 36°53' E 122°26'0 0.0
2014-Jul-21 22:24N 36°53' E 122°26'0 0.0
2014-Jul-21 21:12N 36°53' E 122°26'0 0.1
2014-Jul-21 20:30N 36°53' E 122°26'0 0.0
2014-Jul-21 20:12N 36°53' E 122°26'0 0.1
2014-Jul-21 19:24N 36°53' E 122°26'0 0.0
2014-Jul-21 06:30N 36°53' E 122°26'  

Dump ship's entire track history